createdAt,value
2018-04-02T00:02:35.116Z,9.45
2018-04-02T00:17:36.082Z,9.42
2018-04-02T00:32:35.019Z,9.32
2018-04-02T01:02:35.348Z,9.25
2018-04-02T01:17:35.804Z,9.18
2018-04-02T01:32:35.202Z,9.15
2018-04-02T01:47:35.150Z,9.08
2018-04-02T02:02:36.295Z,9.04
2018-04-02T02:17:34.473Z,9.07
2018-04-02T02:32:34.425Z,9.26
2018-04-02T02:47:35.452Z,9.27
2018-04-02T03:02:35.783Z,9.27
2018-04-02T03:17:34.751Z,9.37
2018-04-02T03:32:34.633Z,9.54
2018-04-02T03:47:35.773Z,9.58
2018-04-02T04:02:34.480Z,9.62
2018-04-02T04:17:34.879Z,9.60
2018-04-02T04:32:36.936Z,10.24
2018-04-02T04:47:34.839Z,12.10
2018-04-02T05:02:35.163Z,11.16
2018-04-02T05:17:35.191Z,10.55
2018-04-02T05:32:34.929Z,10.26
2018-04-02T05:47:36.836Z,9.95
2018-04-02T06:02:37.383Z,9.79
2018-04-02T06:17:36.146Z,9.66
2018-04-02T06:32:35.374Z,9.78
2018-04-02T06:47:35.227Z,10.72
2018-04-02T07:02:36.655Z,9.95
2018-04-02T07:17:37.531Z,10.27
2018-04-02T07:47:34.652Z,12.48
2018-04-02T08:02:44.919Z,15.95
2018-04-02T08:17:35.762Z,16.74
2018-04-02T08:32:34.249Z,16.84
2018-04-02T08:47:34.657Z,16.20
2018-04-02T09:02:35.163Z,15.40
2018-04-02T09:17:37.036Z,15.77
2018-04-02T09:32:34.943Z,15.11
2018-04-02T09:47:34.443Z,14.32
2018-04-02T10:02:37.278Z,14.17
2018-04-02T10:17:40.337Z,13.65
2018-04-02T10:32:37.178Z,13.33
2018-04-02T10:47:40.133Z,13.87
2018-04-02T11:02:34.496Z,14.86
2018-04-02T11:17:36.407Z,15.77
2018-04-02T11:32:36.407Z,15.36
2018-04-02T11:47:36.339Z,14.95
2018-04-02T12:02:34.819Z,14.82
2018-04-02T12:17:34.681Z,17.36
2018-04-02T12:32:34.657Z,16.87
2018-04-02T12:47:34.447Z,16.08
2018-04-02T13:02:34.953Z,15.35
2018-04-02T13:17:42.843Z,15.50
2018-04-02T13:32:35.043Z,15.48
2018-04-02T13:47:37.233Z,16.02
2018-04-02T14:02:40.021Z,16.38
2018-04-02T14:17:35.229Z,16.02
2018-04-02T14:32:36.561Z,15.70
2018-04-02T14:47:45.004Z,15.46
2018-04-02T15:17:40.424Z,15.26
2018-04-02T15:32:34.751Z,15.26
2018-04-02T15:47:38.328Z,14.84
2018-04-02T16:02:39.713Z,14.76
2018-04-02T16:17:36.640Z,14.48
2018-04-02T16:32:36.508Z,14.01
2018-04-02T16:47:36.076Z,14.15
2018-04-02T17:02:35.135Z,13.40
2018-04-02T17:17:39.002Z,12.80
2018-04-02T17:32:40.677Z,12.38
2018-04-02T17:47:42.837Z,11.98
2018-04-02T18:02:46.272Z,11.64
2018-04-02T18:17:40.111Z,11.35
2018-04-02T18:32:38.124Z,11.08
2018-04-02T19:02:46.105Z,10.74
2018-04-02T19:17:34.270Z,10.49
2018-04-02T19:32:35.202Z,10.02
2018-04-02T19:47:37.064Z,9.71
2018-04-02T20:02:34.596Z,9.67
2018-04-02T20:17:36.513Z,9.65
2018-04-02T20:32:34.548Z,9.57
2018-04-02T20:47:34.494Z,9.48
2018-04-02T21:02:34.798Z,9.33
2018-04-02T21:17:34.875Z,9.11
2018-04-02T21:32:36.761Z,9.01
2018-04-02T21:47:34.184Z,8.89
2018-04-02T22:02:35.101Z,8.76
2018-04-02T22:17:35.058Z,8.63
2018-04-02T22:32:34.996Z,8.50
2018-04-02T22:47:35.042Z,8.41
2018-04-02T23:32:37.110Z,8.10
2018-04-02T23:47:35.138Z,7.93
